Time;durP1;ratioP1;P1;durP2;ratioP2;P2;SDS_P1;SDS_P2;PMS_P1;PMS_P2;Temp;Humidity;BMP_temperature;BMP_pressure;BME280_temperature;BME280_humidity;BME280_pressure;Samples;Min_cycle;Max_cycle;Signal;HPM_P1;HPM_P2
2022/08/31 00:04:56;;;;;;;2.70;2.60;;;24.10;41.00;;;;;;6224322;22;20972;-61
2022/08/31 00:07:23;;;;;;;2.60;2.40;;;24.20;41.00;;;;;;6232182;22;20411;-64
2022/08/31 00:09:49;;;;;;;3.10;2.80;;;24.20;41.00;;;;;;6207669;22;20423;-61
2022/08/31 00:12:14;;;;;;;2.50;2.40;;;24.20;41.00;;;;;;6202520;23;20431;-62
2022/08/31 00:14:40;;;;;;;2.40;2.30;;;24.20;41.00;;;;;;6220922;22;20775;-64
2022/08/31 00:17:06;;;;;;;2.30;2.20;;;24.10;40.90;;;;;;6234561;23;20240;-61
2022/08/31 00:19:32;;;;;;;2.70;2.60;;;24.20;41.10;;;;;;6233566;22;20193;-66
2022/08/31 00:21:57;;;;;;;2.30;2.20;;;24.20;41.00;;;;;;6234259;22;20530;-62
2022/08/31 00:24:23;;;;;;;2.90;2.70;;;24.20;41.10;;;;;;6232280;22;20217;-62
2022/08/31 00:26:49;;;;;;;2.70;2.60;;;24.20;41.10;;;;;;6231481;22;20194;-61
2022/08/31 00:29:14;;;;;;;2.50;2.40;;;24.20;41.10;;;;;;6231661;22;20323;-64
2022/08/31 00:31:40;;;;;;;2.80;2.60;;;24.20;41.10;;;;;;6231734;22;20281;-66
2022/08/31 00:34:06;;;;;;;2.60;2.40;;;24.20;41.00;;;;;;6230559;22;20200;-62
2022/08/31 00:36:31;;;;;;;2.50;2.40;;;24.20;41.10;;;;;;6231827;22;20197;-61
2022/08/31 00:38:57;;;;;;;2.40;2.30;;;24.20;41.00;;;;;;6233552;22;20561;-63
2022/08/31 00:41:26;;;;;;;2.67;2.47;;;24.20;41.10;;;;;;6231246;22;20192;-63
2022/08/31 00:43:58;;;;;;;2.60;2.50;;;24.20;41.00;;;;;;6230573;22;20205;-64
2022/08/31 00:46:36;;;;;;;2.50;2.40;;;24.20;41.10;;;;;;6214403;23;20416;-60
2022/08/31 00:49:10;;;;;;;2.57;2.47;;;24.20;41.80;;;;;;6205235;22;20466;-64
2022/08/31 00:51:41;;;;;;;2.50;2.40;;;24.20;41.00;;;;;;6229931;22;21149;-62
2022/08/31 00:54:09;;;;;;;2.57;2.47;;;24.20;41.00;;;;;;6230661;22;20434;-64
2022/08/31 00:56:36;;;;;;;6.80;2.90;;;24.20;41.10;;;;;;6232344;22;20418;-61
2022/08/31 00:59:02;;;;;;;2.43;2.33;;;24.20;41.80;;;;;;6229208;22;20995;-60
2022/08/31 01:01:29;;;;;;;2.30;2.20;;;24.20;41.10;;;;;;6231631;22;20407;-63
2022/08/31 01:03:55;;;;;;;2.50;2.40;;;24.20;41.10;;;;;;6233418;22;20912;-62
2022/08/31 01:06:21;;;;;;;2.47;2.37;;;24.20;41.10;;;;;;6229763;22;20471;-60
2022/08/31 01:08:47;;;;;;;2.77;2.67;;;24.20;41.10;;;;;;6230943;22;20422;-61
2022/08/31 01:11:14;;;;;;;2.67;2.50;;;24.20;41.10;;;;;;6229551;22;20406;-60
2022/08/31 01:13:43;;;;;;;2.30;2.20;;;24.20;41.10;;;;;;6231726;22;20526;-60
2022/08/31 01:16:14;;;;;;;2.60;2.50;;;24.20;41.10;;;;;;6230315;22;20481;-60
2022/08/31 01:18:41;;;;;;;2.90;2.70;;;24.20;41.10;;;;;;6232161;22;20423;-61
2022/08/31 01:21:28;;;;;;;2.80;2.60;;;24.20;41.10;;;;;;6231976;22;20423;-61
2022/08/31 01:23:56;;;;;;;2.47;2.37;;;24.20;41.10;;;;;;6206433;22;20502;-66
2022/08/31 01:26:26;;;;;;;2.37;2.27;;;24.20;41.10;;;;;;6220091;22;20540;-62
2022/08/31 01:28:57;;;;;;;2.60;2.40;;;24.20;41.10;;;;;;6219209;22;20417;-62
2022/08/31 01:31:28;;;;;;;2.40;2.30;;;24.20;41.20;;;;;;6227674;22;20431;-60
2022/08/31 01:33:54;;;;;;;2.03;1.93;;;24.20;41.20;;;;;;6223417;22;20498;-67
2022/08/31 01:36:21;;;;;;;2.30;2.20;;;24.20;41.20;;;;;;6221658;22;20426;-60
2022/08/31 01:38:47;;;;;;;2.20;2.10;;;24.20;41.20;;;;;;6206669;22;20195;-60
2022/08/31 01:41:13;;;;;;;2.30;2.20;;;24.20;41.20;;;;;;6232995;22;20507;-64
2022/08/31 01:43:38;;;;;;;2.43;2.33;;;24.20;41.20;;;;;;6232479;22;20802;-61
2022/08/31 01:46:10;;;;;;;2.50;2.30;;;24.20;41.20;;;;;;6230341;22;20251;-64
2022/08/31 01:48:36;;;;;;;2.47;2.33;;;24.20;41.20;;;;;;6232915;22;20208;-61
2022/08/31 01:51:03;;;;;;;2.50;2.40;;;24.20;41.20;;;;;;6205698;23;20414;-61
2022/08/31 01:53:29;;;;;;;2.30;2.20;;;24.20;41.20;;;;;;6234269;22;20423;-62
2022/08/31 01:55:55;;;;;;;2.27;2.17;;;24.20;41.20;;;;;;6233138;22;20468;-65
2022/08/31 01:58:21;;;;;;;2.53;2.33;;;24.20;41.20;;;;;;6201208;22;20988;-60
2022/08/31 02:00:47;;;;;;;2.57;2.47;;;24.20;41.20;;;;;;6232107;22;20573;-65
2022/08/31 02:03:12;;;;;;;2.37;2.27;;;24.20;41.20;;;;;;6231636;22;20435;-61
2022/08/31 02:05:39;;;;;;;2.90;2.70;;;24.20;41.20;;;;;;6204299;22;20189;-65
2022/08/31 02:08:06;;;;;;;2.73;2.63;;;24.20;41.20;;;;;;6205028;22;20193;-62
2022/08/31 02:10:32;;;;;;;2.40;2.30;;;24.20;41.20;;;;;;6233278;22;20433;-60
2022/08/31 02:12:58;;;;;;;2.07;1.97;;;24.10;41.10;;;;;;6235065;22;20762;-64
2022/08/31 02:15:24;;;;;;;2.60;2.50;;;24.20;41.20;;;;;;6237186;22;20411;-61
2022/08/31 02:17:50;;;;;;;2.50;2.40;;;24.20;41.30;;;;;;6233477;22;20181;-61
2022/08/31 02:20:16;;;;;;;3.13;3.03;;;24.10;41.10;;;;;;6233001;22;20692;-60
2022/08/31 02:22:43;;;;;;;2.77;2.67;;;24.20;41.30;;;;;;6231757;22;20418;-61
2022/08/31 02:25:09;;;;;;;3.00;2.90;;;24.20;41.20;;;;;;6233525;22;20598;-60
2022/08/31 02:27:36;;;;;;;2.30;2.20;;;24.20;41.30;;;;;;6234217;22;20881;-61
2022/08/31 02:30:05;;;;;;;2.57;2.37;;;24.10;41.20;;;;;;6234175;22;20477;-63
2022/08/31 02:32:30;;;;;;;2.60;2.40;;;24.10;41.20;;;;;;6233742;22;20431;-61
2022/08/31 02:34:56;;;;;;;2.30;2.20;;;24.20;41.30;;;;;;6235932;22;20410;-63
2022/08/31 02:37:21;;;;;;;2.60;2.40;;;24.10;41.20;;;;;;6228907;22;20190;-61
2022/08/31 02:39:47;;;;;;;2.60;2.50;;;24.20;41.30;;;;;;6202717;23;20700;-61
2022/08/31 02:42:12;;;;;;;3.30;2.40;;;24.10;41.20;;;;;;6202301;23;20244;-61
2022/08/31 02:44:38;;;;;;;2.40;2.30;;;24.20;41.30;;;;;;6203044;23;20740;-62
2022/08/31 02:47:04;;;;;;;2.87;2.77;;;24.10;41.20;;;;;;6202528;23;20644;-64
2022/08/31 02:49:31;;;;;;;2.37;2.27;;;24.20;41.30;;;;;;6205430;23;20428;-61
2022/08/31 02:51:57;;;;;;;2.23;2.13;;;24.20;41.30;;;;;;6202451;23;20220;-62
2022/08/31 02:54:22;;;;;;;2.20;2.10;;;24.20;41.30;;;;;;6203238;23;20411;-60
2022/08/31 02:56:48;;;;;;;2.40;2.30;;;24.10;41.20;;;;;;6201816;23;20202;-60
2022/08/31 02:59:13;;;;;;;2.40;2.30;;;24.20;41.30;;;;;;6203056;23;20193;-64
2022/08/31 03:01:39;;;;;;;2.67;2.47;;;24.10;41.20;;;;;;6197527;23;20202;-63
2022/08/31 03:04:05;;;;;;;2.50;2.40;;;24.10;41.20;;;;;;6202284;23;20509;-61
2022/08/31 03:06:31;;;;;;;2.40;2.30;;;24.10;41.20;;;;;;6203858;23;20221;-62
2022/08/31 03:08:59;;;;;;;2.80;2.70;;;24.10;41.20;;;;;;6201004;23;20574;-61
2022/08/31 03:11:25;;;;;;;2.67;2.53;;;24.10;41.20;;;;;;6225783;23;20667;-60
2022/08/31 03:13:51;;;;;;;2.60;2.50;;;24.20;41.30;;;;;;6214388;22;20482;-63
2022/08/31 03:16:17;;;;;;;2.80;2.60;;;24.10;41.30;;;;;;6231358;22;20419;-61
2022/08/31 03:18:43;;;;;;;2.37;2.27;;;24.10;41.20;;;;;;6206175;22;20189;-61
2022/08/31 03:21:08;;;;;;;2.40;2.30;;;24.10;41.20;;;;;;6231338;22;20909;-61
2022/08/31 03:23:34;;;;;;;2.20;2.10;;;24.10;41.20;;;;;;6231167;22;20527;-61
2022/08/31 03:26:00;;;;;;;2.67;2.40;;;24.10;41.20;;;;;;6234290;22;20712;-65
2022/08/31 03:28:25;;;;;;;2.20;2.10;;;24.10;41.30;;;;;;6236021;22;20216;-60
2022/08/31 03:30:51;;;;;;;2.40;2.30;;;24.20;41.40;;;;;;6232279;22;20193;-63
2022/08/31 03:33:17;;;;;;;2.20;2.10;;;24.10;41.30;;;;;;6231903;22;20326;-60
2022/08/31 03:35:43;;;;;;;2.50;2.40;;;24.10;42.10;;;;;;6215327;22;20189;-61
2022/08/31 03:38:09;;;;;;;2.47;2.37;;;24.10;41.30;;;;;;6208262;22;20198;-61
2022/08/31 03:40:35;;;;;;;2.53;2.43;;;24.10;41.20;;;;;;6207076;22;20718;-61
2022/08/31 03:43:01;;;;;;;2.80;2.60;;;24.10;41.30;;;;;;6226632;22;20426;-61
2022/08/31 03:45:27;;;;;;;2.63;2.53;;;24.20;41.40;;;;;;6233654;22;20434;-64
2022/08/31 03:47:53;;;;;;;2.10;2.00;;;24.10;41.30;;;;;;6204055;22;20193;-61
2022/08/31 03:50:18;;;;;;;2.67;2.47;;;24.10;41.30;;;;;;6230397;22;20636;-61
2022/08/31 03:52:44;;;;;;;3.20;2.57;;;24.10;41.30;;;;;;6232358;23;20450;-60
2022/08/31 03:55:11;;;;;;;2.50;2.30;;;24.10;41.30;;;;;;6230853;22;20197;-62
2022/08/31 03:57:36;;;;;;;2.30;2.20;;;24.10;41.30;;;;;;6204046;23;20193;-62
2022/08/31 04:00:04;;;;;;;2.60;2.43;;;24.10;41.40;;;;;;6231085;22;20951;-62
2022/08/31 04:02:30;;;;;;;2.90;2.70;;;24.10;41.30;;;;;;6230247;22;20700;-64
2022/08/31 04:04:56;;;;;;;2.70;2.50;;;24.10;41.30;;;;;;6232194;22;20422;-60
2022/08/31 04:07:21;;;;;;;2.40;2.30;;;24.20;41.40;;;;;;6231319;22;20809;-62
2022/08/31 04:09:48;;;;;;;2.40;2.30;;;24.10;41.30;;;;;;6230145;22;20224;-60
2022/08/31 04:12:15;;;;;;;2.43;2.33;;;24.10;41.30;;;;;;6231297;22;20267;-60
2022/08/31 04:14:41;;;;;;;2.50;2.40;;;24.10;41.40;;;;;;6205558;22;20738;-62
2022/08/31 04:17:09;;;;;;;2.63;2.20;;;24.10;41.40;;;;;;6232618;22;20430;-65
2022/08/31 04:19:35;;;;;;;2.50;2.40;;;24.10;41.40;;;;;;6231393;22;20456;-61
2022/08/31 04:22:01;;;;;;;2.33;2.23;;;24.10;41.50;;;;;;6230766;22;20435;-63
2022/08/31 04:24:28;;;;;;;2.50;2.40;;;24.10;41.40;;;;;;6234830;22;20418;-64
2022/08/31 04:26:53;;;;;;;2.30;2.20;;;24.10;41.40;;;;;;6207095;22;20202;-65
2022/08/31 04:29:19;;;;;;;2.57;2.47;;;24.10;41.40;;;;;;6198176;23;20592;-63
2022/08/31 04:31:46;;;;;;;2.70;2.60;;;24.20;41.40;;;;;;6198562;23;20206;-64
2022/08/31 04:34:12;;;;;;;2.90;2.80;;;24.20;41.40;;;;;;6201449;23;20277;-61
2022/08/31 04:36:38;;;;;;;2.30;2.20;;;24.20;41.40;;;;;;6202722;23;20414;-61
2022/08/31 04:39:05;;;;;;;2.93;2.73;;;24.20;41.30;;;;;;6196088;23;20411;-64
2022/08/31 04:41:34;;;;;;;2.40;2.30;;;24.20;41.30;;;;;;6200417;23;20201;-62
2022/08/31 04:44:02;;;;;;;2.20;2.10;;;24.20;42.10;;;;;;6201197;23;21296;-61
2022/08/31 04:46:28;;;;;;;3.10;2.43;;;24.20;41.30;;;;;;6200810;23;20419;-62
2022/08/31 04:48:54;;;;;;;2.23;2.13;;;24.20;41.30;;;;;;6196864;23;20510;-60
2022/08/31 04:51:27;;;;;;;2.43;2.23;;;24.20;41.30;;;;;;6231117;22;20422;-61
2022/08/31 04:53:53;;;;;;;2.40;2.30;;;24.20;41.30;;;;;;6231084;22;20426;-60
2022/08/31 04:56:22;;;;;;;2.20;2.10;;;24.20;41.30;;;;;;6229360;22;20403;-61
2022/08/31 04:58:50;;;;;;;2.50;2.30;;;24.20;41.30;;;;;;6199228;22;20414;-61
2022/08/31 05:01:19;;;;;;;2.10;1.90;;;24.20;41.20;;;;;;6232494;22;20414;-60
2022/08/31 05:03:49;;;;;;;2.10;2.00;;;24.20;41.30;;;;;;6231123;22;20415;-62
2022/08/31 05:06:16;;;;;;;2.47;2.37;;;24.20;41.20;;;;;;6205457;23;20423;-63
2022/08/31 05:08:43;;;;;;;2.10;2.00;;;24.20;41.20;;;;;;6226678;22;20427;-62
2022/08/31 05:11:14;;;;;;;4.30;2.17;;;24.20;41.30;;;;;;6226565;22;20464;-61
2022/08/31 05:13:40;;;;;;;2.00;1.90;;;24.20;41.20;;;;;;6209071;22;20490;-62
2022/08/31 05:16:09;;;;;;;2.10;1.87;;;24.20;42.00;;;;;;6226313;22;20443;-63
2022/08/31 05:18:36;;;;;;;2.30;2.20;;;24.20;41.20;;;;;;6228611;22;20422;-62
2022/08/31 05:21:10;;;;;;;2.40;2.20;;;24.20;41.10;;;;;;6228929;22;20419;-60
2022/08/31 05:23:37;;;;;;;2.27;2.13;;;24.20;41.10;;;;;;6227947;22;20991;-62
2022/08/31 05:26:02;;;;;;;1.97;1.87;;;24.20;41.10;;;;;;6231176;22;20917;-60
2022/08/31 05:28:28;;;;;;;2.20;2.00;;;24.20;41.00;;;;;;6226416;22;20569;-60
2022/08/31 05:30:56;;;;;;;1.63;1.53;;;24.20;41.10;;;;;;6229017;22;20181;-63
2022/08/31 05:33:22;;;;;;;2.33;2.10;;;24.20;40.80;;;;;;6232031;22;20198;-62
2022/08/31 05:35:47;;;;;;;2.07;1.43;;;24.20;40.70;;;;;;6233079;22;20425;-62
2022/08/31 05:38:13;;;;;;;1.87;1.70;;;24.20;40.60;;;;;;6202738;22;20192;-60
2022/08/31 05:40:39;;;;;;;1.97;1.87;;;24.30;40.50;;;;;;6232909;22;20189;-63
2022/08/31 05:43:04;;;;;;;1.50;1.40;;;24.30;40.40;;;;;;6231387;22;20671;-60
2022/08/31 05:45:31;;;;;;;4.13;2.20;;;24.30;40.10;;;;;;6235352;22;20193;-65
2022/08/31 05:47:56;;;;;;;1.83;1.63;;;24.30;40.00;;;;;;6234880;22;20189;-63
2022/08/31 05:50:22;;;;;;;1.60;1.50;;;24.30;40.00;;;;;;6231724;22;20421;-60
2022/08/31 05:52:47;;;;;;;1.83;1.73;;;24.30;39.80;;;;;;6202315;22;20284;-64
2022/08/31 05:55:13;;;;;;;1.50;1.40;;;24.30;39.80;;;;;;6231906;22;20620;-62
2022/08/31 05:57:39;;;;;;;1.80;1.70;;;24.30;39.70;;;;;;6233415;22;20191;-64
2022/08/31 06:00:09;;;;;;;1.70;1.60;;;24.30;39.70;;;;;;6229834;22;20197;-63
2022/08/31 06:02:35;;;;;;;2.43;1.80;;;24.30;39.70;;;;;;6230121;22;20189;-60
2022/08/31 06:05:01;;;;;;;1.80;1.70;;;24.30;39.80;;;;;;6231173;22;20735;-66
2022/08/31 06:07:27;;;;;;;2.00;1.90;;;24.30;39.90;;;;;;6234069;22;20410;-61
2022/08/31 06:09:53;;;;;;;1.73;1.63;;;24.30;40.80;;;;;;6231595;22;20306;-63
2022/08/31 06:12:19;;;;;;;1.97;1.87;;;24.30;40.10;;;;;;6231336;22;20209;-63
2022/08/31 06:14:45;;;;;;;3.10;1.70;;;24.30;40.20;;;;;;6227277;22;20193;-61
2022/08/31 06:17:11;;;;;;;2.97;1.80;;;24.30;40.20;;;;;;6230438;22;20576;-62
2022/08/31 06:19:37;;;;;;;2.83;1.70;;;24.30;40.30;;;;;;6231109;22;20419;-59
2022/08/31 06:22:03;;;;;;;1.90;1.80;;;24.30;40.40;;;;;;6230378;22;20418;-60
2022/08/31 06:24:29;;;;;;;1.60;1.50;;;24.30;40.50;;;;;;6232921;22;20753;-61
2022/08/31 06:26:56;;;;;;;2.23;1.57;;;24.30;40.50;;;;;;6206160;23;20197;-63
2022/08/31 06:29:22;;;;;;;2.80;1.67;;;24.30;40.50;;;;;;6201557;22;20193;-60
2022/08/31 06:31:48;;;;;;;2.60;1.80;;;24.30;40.60;;;;;;6228448;22;21241;-59
2022/08/31 06:34:16;;;;;;;4.30;1.87;;;24.30;40.60;;;;;;6228736;22;20700;-61
2022/08/31 06:36:42;;;;;;;10.67;1.97;;;24.30;40.60;;;;;;6233094;22;20197;-60
2022/08/31 06:39:07;;;;;;;2.70;1.77;;;24.30;40.60;;;;;;6230565;22;20413;-60
2022/08/31 06:41:35;;;;;;;1.60;1.50;;;24.30;40.60;;;;;;6233072;22;20212;-61
2022/08/31 06:44:03;;;;;;;2.27;1.50;;;24.40;40.70;;;;;;6232906;22;20225;-61
2022/08/31 06:46:31;;;;;;;3.07;1.63;;;24.40;40.70;;;;;;6222339;22;20497;-60
2022/08/31 06:48:57;;;;;;;2.13;1.70;;;24.40;40.70;;;;;;6232035;22;20425;-59
2022/08/31 06:51:24;;;;;;;1.77;1.67;;;24.40;40.80;;;;;;6225848;22;20494;-63
2022/08/31 06:53:50;;;;;;;2.63;1.87;;;24.40;40.70;;;;;;6233245;22;20501;-60
2022/08/31 06:56:23;;;;;;;1.60;1.50;;;24.40;40.70;;;;;;6227899;22;20431;-60
2022/08/31 06:58:50;;;;;;;2.20;1.60;;;24.40;40.70;;;;;;6229867;22;20407;-60
2022/08/31 07:01:21;;;;;;;2.17;2.07;;;24.40;40.80;;;;;;6229792;22;20411;-62
2022/08/31 07:03:48;;;;;;;2.77;1.87;;;24.40;40.80;;;;;;6229843;22;21046;-60
2022/08/31 07:06:16;;;;;;;1.70;1.60;;;24.40;40.80;;;;;;6231962;22;20678;-61
2022/08/31 07:08:43;;;;;;;1.50;1.40;;;24.40;41.60;;;;;;6229704;22;20502;-60
2022/08/31 07:11:15;;;;;;;2.10;1.90;;;24.40;40.80;;;;;;6230236;22;20485;-60
2022/08/31 07:13:41;;;;;;;1.70;1.60;;;24.40;40.90;;;;;;6232878;22;20433;-60
2022/08/31 07:16:12;;;;;;;1.60;1.50;;;24.40;40.80;;;;;;6235788;22;20415;-60
2022/08/31 07:18:39;;;;;;;1.90;1.80;;;24.40;41.70;;;;;;6203393;22;20422;-61
2022/08/31 07:21:19;;;;;;;2.93;1.77;;;24.40;40.90;;;;;;6232065;22;20407;-60
2022/08/31 07:23:46;;;;;;;1.70;1.60;;;24.40;40.90;;;;;;6229406;22;20410;-62
2022/08/31 07:26:16;;;;;;;1.93;1.83;;;24.40;40.90;;;;;;6233109;22;20497;-60
2022/08/31 07:28:42;;;;;;;1.77;1.67;;;24.40;40.90;;;;;;6204021;23;20558;-60
2022/08/31 07:31:09;;;;;;;1.93;1.83;;;24.40;41.00;;;;;;6230776;22;20489;-59
2022/08/31 07:33:38;;;;;;;2.00;1.90;;;24.40;41.00;;;;;;6231332;22;20422;-60
2022/08/31 07:36:13;;;;;;;1.73;1.63;;;24.40;41.00;;;;;;6199116;23;20434;-60
2022/08/31 07:42:08;;;;;;;1.60;1.50;;;24.40;41.00;;;;;;6200189;23;20474;-62
2022/08/31 07:44:22;;;;;;;1.70;1.60;;;24.40;41.00;;;;;;6210367;22;20759;-62
2022/08/31 07:46:48;;;;;;;1.60;1.50;;;24.40;41.10;;;;;;6226231;22;20819;-62
2022/08/31 07:49:15;;;;;;;1.60;1.50;;;24.40;41.00;;;;;;6205884;22;20465;-64
2022/08/31 07:51:49;;;;;;;1.57;1.47;;;24.40;41.00;;;;;;6202216;22;20873;-60
2022/08/31 07:54:22;;;;;;;1.60;1.50;;;24.40;40.90;;;;;;6233695;22;20419;-62
2022/08/31 07:56:49;;;;;;;2.00;1.90;;;24.40;40.70;;;;;;6231384;22;20506;-61
2022/08/31 07:59:16;;;;;;;2.00;1.80;;;24.40;40.70;;;;;;6229443;22;20448;-60
2022/08/31 08:01:42;;;;;;;3.20;1.70;;;24.40;41.60;;;;;;6228592;22;20976;-60
2022/08/31 08:04:08;;;;;;;1.83;1.73;;;24.40;40.80;;;;;;6221830;22;20418;-59
2022/08/31 08:06:34;;;;;;;2.10;1.90;;;24.40;40.90;;;;;;6202396;23;20205;-60
2022/08/31 08:09:07;;;;;;;2.43;2.23;;;24.40;40.90;;;;;;6203719;23;20416;-60
2022/08/31 08:11:38;;;;;;;1.83;1.73;;;24.40;40.90;;;;;;6226534;22;20193;-59
2022/08/31 08:14:04;;;;;;;2.13;1.97;;;24.40;41.70;;;;;;6233945;22;20450;-60
2022/08/31 08:16:31;;;;;;;1.93;1.83;;;24.40;41.00;;;;;;6229114;22;20419;-61
2022/08/31 08:18:56;;;;;;;2.30;1.93;;;24.40;40.90;;;;;;6233918;22;20439;-60
2022/08/31 08:21:22;;;;;;;2.07;1.80;;;24.40;41.00;;;;;;6233741;22;20445;-59
2022/08/31 08:23:48;;;;;;;2.20;2.10;;;24.30;40.90;;;;;;6234496;22;20759;-59
2022/08/31 08:26:14;;;;;;;2.13;1.80;;;24.40;41.00;;;;;;6229901;22;20249;-59
2022/08/31 08:28:40;;;;;;;2.37;2.27;;;24.30;40.90;;;;;;6232669;22;20414;-62
2022/08/31 08:31:10;;;;;;;2.13;2.03;;;24.30;40.80;;;;;;6222911;22;20628;-60
2022/08/31 08:33:35;;;;;;;1.83;1.73;;;24.30;40.80;;;;;;6232736;22;20665;-58
2022/08/31 08:36:06;;;;;;;2.27;1.83;;;24.30;40.80;;;;;;6234734;22;20494;-60
2022/08/31 08:38:32;;;;;;;2.30;2.10;;;24.30;40.80;;;;;;6233414;22;20193;-60
2022/08/31 08:40:59;;;;;;;2.33;2.23;;;24.30;40.80;;;;;;6234336;22;20896;-59
2022/08/31 08:43:32;;;;;;;2.30;2.20;;;24.30;40.80;;;;;;6215458;23;20289;-60
2022/08/31 08:46:00;;;;;;;2.10;2.00;;;24.30;40.80;;;;;;6198072;23;20424;-59
2022/08/31 08:48:29;;;;;;;2.30;2.10;;;24.30;40.90;;;;;;6202770;22;20502;-60
2022/08/31 08:50:54;;;;;;;2.00;1.90;;;24.30;40.80;;;;;;6221031;23;20415;-60
2022/08/31 08:53:27;;;;;;;2.20;2.10;;;24.30;40.80;;;;;;6220331;22;20493;-60
2022/08/31 08:55:54;;;;;;;2.27;2.17;;;24.30;40.80;;;;;;6231826;22;20193;-60
2022/08/31 08:58:20;;;;;;;2.30;2.10;;;24.30;40.90;;;;;;6228794;22;20402;-60
2022/08/31 09:00:50;;;;;;;2.67;2.57;;;24.30;40.80;;;;;;6193663;23;20728;-59
2022/08/31 09:03:20;;;;;;;1.93;1.83;;;24.30;40.80;;;;;;6231425;22;20422;-63
2022/08/31 09:06:14;;;;;;;2.47;2.33;;;24.30;40.90;;;;;;6225882;22;20473;-60
2022/08/31 09:09:06;;;;;;;2.20;2.10;;;24.30;40.90;;;;;;6201550;23;20817;-60
2022/08/31 09:12:21;;;;;;;2.30;2.20;;;24.30;40.90;;;;;;6198440;23;20450;-59
2022/08/31 09:15:14;;;;;;;3.93;2.60;;;24.30;40.90;;;;;;6164002;23;20474;-59
2022/08/31 09:18:02;;;;;;;2.50;2.40;;;24.30;40.90;;;;;;6218928;22;20418;-59
2022/08/31 09:20:31;;;;;;;2.73;2.63;;;24.30;40.90;;;;;;6193725;22;20952;-59
2022/08/31 09:22:59;;;;;;;2.43;2.23;;;24.20;40.80;;;;;;6219776;22;20440;-60
2022/08/31 09:25:42;;;;;;;2.40;2.30;;;24.20;40.80;;;;;;6215423;22;20403;-62
2022/08/31 09:28:10;;;;;;;4.90;2.57;;;24.20;40.80;;;;;;6196960;23;20453;-60
2022/08/31 09:30:44;;;;;;;2.47;2.37;;;24.20;40.80;;;;;;6217025;22;20438;-62
2022/08/31 09:33:26;;;;;;;3.57;2.50;;;24.20;40.80;;;;;;6196839;22;20894;-60
2022/08/31 09:36:24;;;;;;;2.80;2.60;;;24.20;40.90;;;;;;6193903;22;20411;-64
2022/08/31 09:38:50;;;;;;;3.27;3.00;;;24.20;41.00;;;;;;6176774;23;20423;-59
2022/08/31 09:41:30;;;;;;;3.17;2.97;;;24.20;41.00;;;;;;6200266;23;20888;-60
2022/08/31 09:44:15;;;;;;;3.50;2.30;;;24.20;41.00;;;;;;6206818;23;21020;-60
2022/08/31 09:46:48;;;;;;;4.72;2.70;;;24.30;41.00;;;;;;6217829;22;20384;-60
2022/08/31 09:49:20;;;;;;;2.93;2.73;;;24.40;40.70;;;;;;6218564;22;20197;-60
2022/08/31 09:51:46;;;;;;;2.73;2.60;;;24.50;40.80;;;;;;6212779;22;20475;-59
2022/08/31 09:57:01;;;;;;;3.13;2.93;;;24.40;40.90;;;;;;6196497;23;20569;-62
2022/08/31 09:59:42;;;;;;;3.20;2.90;;;24.40;41.00;;;;;;6196499;23;20506;-64
2022/08/31 10:02:11;;;;;;;4.23;2.90;;;24.40;41.00;;;;;;6201291;22;20429;-61
2022/08/31 10:04:53;;;;;;;2.87;2.63;;;24.30;40.90;;;;;;6223319;22;20418;-63
2022/08/31 10:07:27;;;;;;;3.07;2.73;;;24.30;40.90;;;;;;6197600;22;20453;-60
2022/08/31 10:10:04;;;;;;;4.40;3.73;;;24.30;40.90;;;;;;6223327;22;20895;-63
2022/08/31 10:12:50;;;;;;;2.83;2.70;;;24.30;40.90;;;;;;6226681;22;20461;-61
2022/08/31 10:15:30;;;;;;;2.60;2.50;;;24.30;40.90;;;;;;6196807;22;20419;-64
2022/08/31 10:18:10;;;;;;;2.90;2.73;;;24.30;41.00;;;;;;6204920;22;20988;-60
2022/08/31 10:20:45;;;;;;;3.27;3.07;;;24.30;41.00;;;;;;6219131;22;20493;-64
2022/08/31 10:23:39;;;;;;;2.70;2.60;;;24.30;41.00;;;;;;6224456;22;20422;-65
2022/08/31 10:26:30;;;;;;;3.90;3.50;;;24.30;41.00;;;;;;6195129;22;20898;-63
2022/08/31 10:28:58;;;;;;;4.10;3.07;;;24.30;41.00;;;;;;6204437;22;20749;-61
2022/08/31 10:31:41;;;;;;;4.07;3.47;;;24.30;41.10;;;;;;6224184;22;20869;-63
2022/08/31 10:37:30;;;;;;;3.60;3.40;;;24.30;41.00;;;;;;6226478;22;20457;-64
2022/08/31 10:40:01;;;;;;;3.73;3.50;;;24.30;41.10;;;;;;6205674;22;20419;-60
2022/08/31 10:42:33;;;;;;;3.90;3.20;;;24.30;41.10;;;;;;6223529;22;20573;-62
2022/08/31 10:45:06;;;;;;;3.50;3.30;;;24.30;41.10;;;;;;6220829;22;20431;-61
2022/08/31 10:47:39;;;;;;;3.70;3.50;;;24.30;41.10;;;;;;6222791;23;20499;-63
2022/08/31 10:50:05;;;;;;;3.43;3.23;;;24.30;41.10;;;;;;6228166;22;20426;-59
2022/08/31 10:52:41;;;;;;;3.80;3.60;;;24.30;41.10;;;;;;6197539;22;20430;-59
2022/08/31 10:55:29;;;;;;;3.70;3.40;;;24.30;41.10;;;;;;6193043;23;20328;-61
2022/08/31 10:58:00;;;;;;;3.40;3.20;;;24.30;41.00;;;;;;6204026;22;20423;-59
2022/08/31 11:01:02;;;;;;;3.73;3.53;;;24.40;41.10;;;;;;6184411;23;20757;-59
2022/08/31 11:03:52;;;;;;;3.90;3.60;;;24.40;41.10;;;;;;6107164;23;21149;-60
2022/08/31 11:06:42;;;;;;;3.37;3.17;;;24.40;41.00;;;;;;6192033;22;20525;-59
2022/08/31 11:09:20;;;;;;;3.40;3.20;;;24.40;41.00;;;;;;6214637;22;20407;-61
2022/08/31 11:11:57;;;;;;;3.57;3.37;;;24.40;41.10;;;;;;6219899;22;20943;-63
2022/08/31 11:14:43;;;;;;;3.63;3.43;;;24.40;41.00;;;;;;6216691;22;20504;-60
2022/08/31 11:17:12;;;;;;;3.80;3.17;;;24.40;41.00;;;;;;6188325;23;20430;-60
2022/08/31 11:19:59;;;;;;;3.60;3.33;;;24.40;40.90;;;;;;6189088;23;20645;-61
2022/08/31 11:22:43;;;;;;;3.53;3.33;;;24.40;40.90;;;;;;6178738;22;20419;-62
2022/08/31 11:25:36;;;;;;;8.80;3.57;;;24.40;40.90;;;;;;6185988;22;20422;-63
2022/08/31 11:28:06;;;;;;;3.27;3.00;;;24.50;40.90;;;;;;6217506;22;20987;-66
2022/08/31 11:30:36;;;;;;;3.83;3.53;;;24.50;40.80;;;;;;6214232;22;20472;-59
2022/08/31 11:33:10;;;;;;;3.83;3.63;;;24.50;40.80;;;;;;6216222;22;20441;-60
2022/08/31 11:36:00;;;;;;;3.60;3.40;;;24.50;40.70;;;;;;6218647;22;20421;-61
2022/08/31 11:38:46;;;;;;;3.50;3.30;;;24.50;40.70;;;;;;6175335;23;20878;-61
2022/08/31 11:41:48;;;;;;;3.10;2.90;;;24.50;40.70;;;;;;6204594;22;20431;-61
2022/08/31 11:44:58;;;;;;;3.17;2.97;;;24.50;40.60;;;;;;6204368;22;20438;-60
2022/08/31 11:47:27;;;;;;;2.90;2.70;;;24.50;40.40;;;;;;6157948;22;20524;-64
2022/08/31 11:50:01;;;;;;;3.20;3.00;;;24.50;40.30;;;;;;6221932;22;20418;-66
2022/08/31 11:52:35;;;;;;;3.73;3.53;;;24.50;40.40;;;;;;6202238;22;20443;-64
2022/08/31 11:55:19;;;;;;;3.50;3.20;;;24.50;40.40;;;;;;6203879;22;20426;-64
2022/08/31 11:58:08;;;;;;;3.50;3.30;;;24.50;40.40;;;;;;6211568;22;20410;-58
2022/08/31 12:00:56;;;;;;;3.90;3.70;;;24.50;40.30;;;;;;6183260;23;20427;-63
2022/08/31 12:03:39;;;;;;;3.43;3.23;;;24.50;40.40;;;;;;6184716;22;20428;-66
2022/08/31 12:06:09;;;;;;;3.50;3.30;;;24.40;40.50;;;;;;6206818;23;20425;-67
2022/08/31 12:08:50;;;;;;;3.90;3.70;;;24.40;40.60;;;;;;6168779;23;20502;-59
2022/08/31 12:11:47;;;;;;;3.43;3.23;;;24.40;40.60;;;;;;6216924;22;20419;-64
2022/08/31 12:14:39;;;;;;;3.70;3.50;;;24.40;41.20;;;;;;6215940;22;20435;-61
2022/08/31 12:17:29;;;;;;;4.30;4.10;;;24.40;40.70;;;;;;6212891;22;20415;-59
2022/08/31 12:20:07;;;;;;;3.27;3.07;;;24.40;40.60;;;;;;6188862;22;20415;-63
2022/08/31 12:26:15;;;;;;;3.13;3.03;;;24.40;40.70;;;;;;6189947;22;20519;-60
2022/08/31 12:29:19;;;;;;;3.70;3.50;;;24.40;40.70;;;;;;6183605;23;20419;-60
2022/08/31 12:32:19;;;;;;;4.00;3.80;;;24.40;40.80;;;;;;6198827;23;20423;-59
2022/08/31 12:34:50;;;;;;;3.87;3.67;;;24.40;40.80;;;;;;6191977;22;20422;-64
2022/08/31 12:37:25;;;;;;;4.07;3.87;;;24.40;40.80;;;;;;6211670;22;20408;-58
2022/08/31 12:40:06;;;;;;;3.53;3.33;;;24.40;40.70;;;;;;6211394;22;20424;-59
2022/08/31 12:42:35;;;;;;;4.00;3.80;;;24.40;40.70;;;;;;6194437;22;20433;-59
2022/08/31 12:45:01;;;;;;;4.20;4.00;;;24.40;40.80;;;;;;6208408;22;20423;-62
2022/08/31 12:47:33;;;;;;;3.90;3.70;;;24.40;40.80;;;;;;6230697;22;20514;-67
2022/08/31 12:50:16;;;;;;;2.83;2.73;;;24.40;40.80;;;;;;6228842;22;20425;-60
2022/08/31 12:52:48;;;;;;;4.53;4.33;;;24.40;40.80;;;;;;6226269;22;20427;-61
2022/08/31 12:55:26;;;;;;;3.87;3.47;;;24.40;40.80;;;;;;6231340;22;20921;-59
2022/08/31 12:57:57;;;;;;;4.47;4.27;;;24.40;40.80;;;;;;6221378;22;20489;-58
2022/08/31 13:00:25;;;;;;;4.07;3.87;;;24.40;40.80;;;;;;6223090;22;20414;-62
2022/08/31 13:03:04;;;;;;;4.03;3.83;;;24.40;40.80;;;;;;6222365;22;20724;-64
2022/08/31 13:05:35;;;;;;;4.20;4.00;;;24.40;40.80;;;;;;6224470;22;20405;-61
2022/08/31 13:08:21;;;;;;;4.20;4.00;;;24.40;40.90;;;;;;6209055;22;20449;-61
2022/08/31 13:10:47;;;;;;;4.80;4.50;;;24.40;40.90;;;;;;6202530;22;20422;-59
2022/08/31 13:13:24;;;;;;;4.83;4.63;;;24.30;40.90;;;;;;6226244;22;20752;-63
2022/08/31 13:15:56;;;;;;;4.30;4.10;;;24.40;41.00;;;;;;6226595;22;20612;-66
2022/08/31 13:18:24;;;;;;;4.20;4.00;;;24.30;40.90;;;;;;6226854;22;20419;-59
2022/08/31 13:21:04;;;;;;;3.80;3.60;;;24.30;41.00;;;;;;6226396;22;20410;-63
2022/08/31 13:23:33;;;;;;;4.27;4.07;;;24.30;40.90;;;;;;6228904;22;20415;-59